createdAt,value
2018-05-17T00:01:39.592Z,5.57
2018-05-17T00:04:13.179Z,4.12
2018-05-17T00:06:46.781Z,4.97
2018-05-17T00:09:21.101Z,5.50
2018-05-17T00:11:54.770Z,4.70
2018-05-17T00:14:28.424Z,4.95
2018-05-17T00:17:02.727Z,8.90
2018-05-17T00:19:36.445Z,13.00
2018-05-17T00:22:10.027Z,27.08
2018-05-17T00:24:43.550Z,12.37
2018-05-17T00:27:17.115Z,21.55
2018-05-17T00:29:50.614Z,5.45
2018-05-17T00:32:24.230Z,7.60
2018-05-17T00:34:58.563Z,6.68
2018-05-17T00:37:32.250Z,8.70
2018-05-17T00:40:06.698Z,6.22
2018-05-17T00:42:41.190Z,8.07
2018-05-17T00:45:14.866Z,6.72
2018-05-17T00:47:48.398Z,6.12
2018-05-17T00:50:22.706Z,9.68
2018-05-17T01:06:24.885Z,8.65
2018-05-17T01:08:58.492Z,16.15
2018-05-17T01:11:32.210Z,9.82
2018-05-17T01:14:05.982Z,4.65
2018-05-17T01:16:39.547Z,5.30
2018-05-17T01:19:13.171Z,4.07
2018-05-17T01:21:46.755Z,7.03
2018-05-17T01:24:20.349Z,5.10
2018-05-17T01:26:53.883Z,5.60
2018-05-17T01:29:27.473Z,5.68
2018-05-17T01:32:01.059Z,5.80
2018-05-17T01:34:34.596Z,8.38
2018-05-17T01:37:20.095Z,7.78
2018-05-17T01:39:53.578Z,5.55
2018-05-17T01:42:27.149Z,7.60
2018-05-17T01:45:01.460Z,9.52
2018-05-17T01:47:35.195Z,6.20
2018-05-17T01:50:08.693Z,7.20
2018-05-17T01:52:42.272Z,5.10
2018-05-17T01:55:16.023Z,6.90
2018-05-17T01:57:49.553Z,8.73
2018-05-17T02:00:23.199Z,9.48
2018-05-17T02:02:56.738Z,15.90
2018-05-17T02:05:30.302Z,21.37
2018-05-17T02:08:03.876Z,13.85
2018-05-17T02:10:37.459Z,9.00
2018-05-17T02:13:11.113Z,8.95
2018-05-17T02:15:44.653Z,6.18
2018-05-17T02:18:18.280Z,7.62
2018-05-17T02:20:51.874Z,7.07
2018-05-17T02:23:25.475Z,9.88
2018-05-17T02:25:59.051Z,6.80
2018-05-17T02:28:32.585Z,6.30
2018-05-17T02:31:06.068Z,8.18
2018-05-17T02:33:39.614Z,6.25
2018-05-17T02:36:13.179Z,6.45
2018-05-17T02:38:46.749Z,8.43
2018-05-17T02:41:20.315Z,6.85
2018-05-17T02:43:53.871Z,7.68
2018-05-17T02:46:27.377Z,8.15
2018-05-17T02:49:01.052Z,9.32
2018-05-17T02:51:34.475Z,7.95
2018-05-17T02:54:08.087Z,9.07
2018-05-17T02:56:41.673Z,6.47
2018-05-17T02:59:16.017Z,12.13
2018-05-17T03:01:49.622Z,7.87
2018-05-17T03:04:23.166Z,6.40
2018-05-17T03:06:56.711Z,14.23
2018-05-17T03:09:30.280Z,67.30
2018-05-17T03:12:04.004Z,11.55
2018-05-17T03:14:38.310Z,12.37
2018-05-17T03:17:11.904Z,7.25
2018-05-17T03:19:45.497Z,9.18
2018-05-17T03:22:19.247Z,8.07
2018-05-17T03:24:52.948Z,7.43
2018-05-17T03:27:26.624Z,9.55
2018-05-17T03:30:00.283Z,6.32
2018-05-17T03:32:33.832Z,6.70
2018-05-17T03:35:07.416Z,6.80
2018-05-17T03:37:41.012Z,10.07
2018-05-17T03:40:14.536Z,6.70
2018-05-17T03:42:48.135Z,6.43
2018-05-17T03:45:21.697Z,8.68
2018-05-17T03:47:55.398Z,6.95
2018-05-17T03:50:29.742Z,5.53
2018-05-17T03:53:03.552Z,5.37
2018-05-17T03:55:37.036Z,5.43
2018-05-17T03:58:10.667Z,4.68
2018-05-17T04:00:56.307Z,5.57
2018-05-17T04:03:41.789Z,7.55
2018-05-17T04:06:27.315Z,21.10
2018-05-17T04:09:00.886Z,19.10
2018-05-17T04:11:34.476Z,24.08
2018-05-17T04:14:08.003Z,9.07
2018-05-17T04:16:41.597Z,7.75
2018-05-17T04:19:15.183Z,6.85
2018-05-17T04:21:48.792Z,8.88
2018-05-17T04:24:22.566Z,8.88
2018-05-17T04:26:56.104Z,13.05
2018-05-17T04:29:29.623Z,7.47
2018-05-17T04:32:03.216Z,4.62
2018-05-17T04:34:36.883Z,4.85
2018-05-17T04:37:10.473Z,8.80
2018-05-17T04:39:44.815Z,4.57
2018-05-17T04:42:18.969Z,7.87
2018-05-17T04:44:52.629Z,6.15
2018-05-17T04:47:26.213Z,5.85
2018-05-17T04:50:00.554Z,5.22
2018-05-17T04:52:34.861Z,4.60
2018-05-17T04:55:09.389Z,7.82
2018-05-17T04:57:43.121Z,8.23
2018-05-17T05:00:16.637Z,7.50
2018-05-17T05:02:50.238Z,6.50
2018-05-17T05:05:23.747Z,4.75
2018-05-17T05:07:57.272Z,20.05
2018-05-17T05:10:30.788Z,19.77
2018-05-17T05:13:05.199Z,13.43
2018-05-17T05:15:38.741Z,4.82
2018-05-17T05:18:12.296Z,4.95
2018-05-17T05:20:45.814Z,2.97
2018-05-17T05:23:20.127Z,2.62
2018-05-17T05:25:53.759Z,3.37
2018-05-17T05:28:27.272Z,4.00
2018-05-17T05:31:00.824Z,6.72
2018-05-17T05:33:34.489Z,3.17
2018-05-17T05:36:08.256Z,3.15
2018-05-17T05:38:42.559Z,3.37
2018-05-17T05:41:16.274Z,4.10
2018-05-17T05:43:49.813Z,4.65
2018-05-17T05:46:23.357Z,4.05
2018-05-17T05:48:56.966Z,3.65
2018-05-17T05:51:30.548Z,3.40
2018-05-17T05:54:04.081Z,3.67
2018-05-17T05:56:37.664Z,3.35
2018-05-17T05:59:11.243Z,3.70
2018-05-17T06:01:44.779Z,2.90
2018-05-17T06:04:19.086Z,4.93
2018-05-17T06:06:52.810Z,5.65
2018-05-17T06:09:27.150Z,16.15
2018-05-17T06:12:01.640Z,15.60
2018-05-17T06:14:36.051Z,9.00
2018-05-17T06:17:09.756Z,4.78
2018-05-17T06:19:43.343Z,3.25
2018-05-17T06:22:16.922Z,4.18
2018-05-17T06:24:50.575Z,7.68
2018-05-17T06:27:24.136Z,10.57
2018-05-17T06:29:57.756Z,3.85
2018-05-17T06:32:32.339Z,3.25
2018-05-17T06:35:06.111Z,4.20
2018-05-17T06:37:39.794Z,4.47
2018-05-17T06:40:13.272Z,3.15
2018-05-17T06:42:46.978Z,3.20
2018-05-17T06:45:20.584Z,2.85
2018-05-17T06:47:54.095Z,2.70
2018-05-17T06:50:27.664Z,2.40
2018-05-17T06:53:01.668Z,4.12
2018-05-17T06:55:35.229Z,3.08
2018-05-17T06:58:08.779Z,2.47
2018-05-17T07:00:42.472Z,1.80
2018-05-17T07:03:15.966Z,4.30
2018-05-17T07:05:50.525Z,1.70
2018-05-17T07:08:24.263Z,12.35
2018-05-17T07:10:57.836Z,24.33
2018-05-17T07:13:31.646Z,23.12
2018-05-17T07:16:05.222Z,4.90
2018-05-17T07:18:39.849Z,4.10
2018-05-17T07:21:13.070Z,2.03
2018-05-17T07:23:46.636Z,4.20
2018-05-17T07:26:20.126Z,2.67
2018-05-17T07:28:54.400Z,2.08
2018-05-17T07:31:28.950Z,7.70
2018-05-17T07:34:02.568Z,3.00
2018-05-17T07:36:36.151Z,5.03
2018-05-17T07:39:09.799Z,3.65
2018-05-17T07:41:43.293Z,2.20
2018-05-17T07:44:17.599Z,2.05
2018-05-17T07:46:51.158Z,1.85
2018-05-17T07:49:24.787Z,1.60
2018-05-17T07:51:58.389Z,4.45
2018-05-17T07:54:31.925Z,1.60
2018-05-17T07:57:05.519Z,2.50
2018-05-17T07:59:39.104Z,3.58
2018-05-17T08:02:12.713Z,2.45
2018-05-17T08:04:46.309Z,3.47
2018-05-17T08:07:19.874Z,3.37
2018-05-17T08:09:53.379Z,2.45
2018-05-17T08:12:26.910Z,53.95
2018-05-17T08:15:01.263Z,28.90
2018-05-17T08:17:34.807Z,3.37
2018-05-17T08:20:08.413Z,2.05
2018-05-17T08:22:41.944Z,2.30
2018-05-17T08:25:15.444Z,1.95
2018-05-17T08:27:49.012Z,1.45
2018-05-17T08:30:22.579Z,2.35
2018-05-17T08:32:56.839Z,1.83
2018-05-17T08:35:30.350Z,1.67
2018-05-17T08:38:03.919Z,1.70
2018-05-17T08:40:38.300Z,3.47
2018-05-17T08:43:11.988Z,1.85
2018-05-17T08:45:45.561Z,1.40
2018-05-17T08:48:19.135Z,1.45
2018-05-17T08:50:52.745Z,3.90
2018-05-17T08:53:26.277Z,2.55
2018-05-17T08:56:00.573Z,6.32
2018-05-17T08:58:34.293Z,1.17
2018-05-17T09:01:07.807Z,4.00
2018-05-17T09:03:41.342Z,2.05
2018-05-17T09:06:15.036Z,1.40
2018-05-17T09:08:48.473Z,1.80
2018-05-17T09:11:21.974Z,4.70
2018-05-17T09:13:55.603Z,6.28
2018-05-17T09:16:29.101Z,12.07
2018-05-17T09:19:02.658Z,2.85
2018-05-17T09:21:36.201Z,7.55
2018-05-17T09:24:09.748Z,1.50
2018-05-17T09:26:43.301Z,7.55
2018-05-17T09:29:17.608Z,2.30
2018-05-17T09:31:51.299Z,2.40
2018-05-17T09:34:24.847Z,4.45
2018-05-17T09:36:58.471Z,1.55
2018-05-17T09:39:32.835Z,3.35
2018-05-17T09:42:07.128Z,2.50
2018-05-17T09:44:40.827Z,2.30
2018-05-17T09:47:14.397Z,3.90
2018-05-17T09:49:47.936Z,2.70
2018-05-17T09:52:21.530Z,3.78
2018-05-17T09:54:55.157Z,6.15
2018-05-17T09:57:28.623Z,4.85
2018-05-17T10:00:02.247Z,4.07
2018-05-17T10:02:35.826Z,6.82
2018-05-17T10:05:09.351Z,4.85
2018-05-17T10:07:42.907Z,7.85
2018-05-17T10:10:16.521Z,4.65
2018-05-17T10:12:50.105Z,7.12
2018-05-17T10:15:23.633Z,25.10
2018-05-17T10:17:57.166Z,19.67
2018-05-17T10:20:30.718Z,20.92
2018-05-17T10:23:04.338Z,11.15
2018-05-17T10:25:37.844Z,6.22
2018-05-17T10:28:11.408Z,3.92
2018-05-17T10:30:44.958Z,4.20
2018-05-17T10:33:18.520Z,19.42
2018-05-17T10:35:52.099Z,4.18
2018-05-17T10:38:25.651Z,4.43
2018-05-17T10:40:59.214Z,4.57
2018-05-17T10:43:32.796Z,3.50
2018-05-17T10:46:06.336Z,4.70
2018-05-17T10:48:39.900Z,3.10
2018-05-17T10:51:13.511Z,6.30
2018-05-17T10:53:47.057Z,4.10
2018-05-17T10:56:20.625Z,3.05
2018-05-17T10:58:54.934Z,3.45
2018-05-17T11:01:28.599Z,6.60
2018-05-17T11:04:02.250Z,4.20
2018-05-17T11:06:35.871Z,4.85
2018-05-17T11:09:09.365Z,4.62
2018-05-17T11:11:42.861Z,5.22
2018-05-17T11:14:16.417Z,9.18
2018-05-17T11:16:50.747Z,7.78
2018-05-17T11:19:24.498Z,20.33
2018-05-17T11:21:58.097Z,13.95
2018-05-17T11:24:31.907Z,7.18
2018-05-17T11:27:05.443Z,2.92
2018-05-17T11:29:39.788Z,1.83
2018-05-17T11:32:13.636Z,1.70
2018-05-17T11:34:47.177Z,1.80
2018-05-17T11:37:21.502Z,1.95
2018-05-17T11:39:55.214Z,1.90
2018-05-17T11:42:28.771Z,1.90
2018-05-17T11:45:03.034Z,2.20
2018-05-17T11:47:37.455Z,2.22
2018-05-17T11:50:11.132Z,2.85
2018-05-17T11:52:44.679Z,2.55
2018-05-17T11:55:18.252Z,2.75
2018-05-17T11:57:51.849Z,2.55
2018-05-17T12:00:25.455Z,3.15
2018-05-17T12:02:58.985Z,3.35
2018-05-17T12:05:32.476Z,4.10
2018-05-17T12:08:06.055Z,2.67
2018-05-17T12:10:39.644Z,2.53
2018-05-17T12:13:13.160Z,2.30
2018-05-17T12:15:46.752Z,4.07
2018-05-17T12:18:20.345Z,31.80
2018-05-17T12:20:53.962Z,11.77
2018-05-17T12:23:27.553Z,8.20
2018-05-17T12:26:01.093Z,4.65
2018-05-17T12:28:35.432Z,10.70
2018-05-17T12:31:09.687Z,3.50
2018-05-17T12:33:43.318Z,3.00
2018-05-17T12:36:16.888Z,2.17
2018-05-17T12:38:51.166Z,2.60
2018-05-17T12:41:24.853Z,3.75
2018-05-17T12:43:58.397Z,2.78
2018-05-17T12:46:31.936Z,2.50
2018-05-17T12:49:05.510Z,2.28
2018-05-17T12:51:39.114Z,4.53
2018-05-17T12:54:12.716Z,2.17
2018-05-17T12:56:46.359Z,2.58
2018-05-17T12:59:20.728Z,3.17
2018-05-17T13:01:54.295Z,4.82
2018-05-17T13:04:27.930Z,9.93
2018-05-17T13:07:01.598Z,4.07
2018-05-17T13:09:35.055Z,4.75
2018-05-17T13:12:08.617Z,3.08
2018-05-17T13:14:42.972Z,4.97
2018-05-17T13:17:16.643Z,4.30
2018-05-17T13:19:50.268Z,2.55
2018-05-17T13:22:24.564Z,3.17
2018-05-17T13:24:58.290Z,7.75
2018-05-17T13:27:31.858Z,17.30
2018-05-17T13:30:05.477Z,11.25
2018-05-17T13:32:39.256Z,33.65
2018-05-17T13:35:12.789Z,3.40
2018-05-17T13:37:46.290Z,3.50
2018-05-17T13:40:19.851Z,3.40
2018-05-17T13:42:53.473Z,4.12
2018-05-17T13:45:27.055Z,4.95
2018-05-17T13:48:00.655Z,6.97
2018-05-17T13:50:35.005Z,4.10
2018-05-17T13:53:08.823Z,3.17
2018-05-17T13:55:42.373Z,3.22
2018-05-17T13:58:16.821Z,3.45
2018-05-17T14:00:50.511Z,2.97
2018-05-17T14:03:24.118Z,3.45
2018-05-17T14:05:57.713Z,3.40
2018-05-17T14:08:31.257Z,4.80
2018-05-17T14:11:04.816Z,4.68
2018-05-17T14:13:38.386Z,5.37
2018-05-17T14:16:11.928Z,4.00
2018-05-17T14:18:45.479Z,6.10
2018-05-17T14:21:18.995Z,4.15
2018-05-17T14:23:52.640Z,5.78
2018-05-17T14:26:26.329Z,17.73
2018-05-17T14:28:59.829Z,18.85
2018-05-17T14:31:33.437Z,17.12
2018-05-17T14:34:07.032Z,23.77
2018-05-17T14:36:40.538Z,5.70
2018-05-17T14:39:14.270Z,12.95
2018-05-17T14:41:47.883Z,8.27
2018-05-17T14:44:21.624Z,7.95
2018-05-17T14:46:55.254Z,9.90
2018-05-17T14:49:28.834Z,8.15
2018-05-17T14:52:03.158Z,13.23
2018-05-17T14:54:37.770Z,10.68
2018-05-17T14:57:11.521Z,8.52
2018-05-17T14:59:45.824Z,8.95
2018-05-17T15:02:19.425Z,9.55
2018-05-17T15:04:53.265Z,9.27
2018-05-17T15:07:26.828Z,9.90
2018-05-17T15:10:00.412Z,9.32
2018-05-17T15:12:34.005Z,12.18
2018-05-17T15:15:07.594Z,9.10
2018-05-17T15:17:41.142Z,9.18
2018-05-17T15:20:14.703Z,9.02
2018-05-17T15:22:48.305Z,14.68
2018-05-17T15:25:21.852Z,15.02
2018-05-17T15:27:55.430Z,6.95
2018-05-17T15:30:29.014Z,10.60
2018-05-17T15:33:03.328Z,12.45
2018-05-17T15:35:36.959Z,22.73
2018-05-17T15:38:10.523Z,6.25
2018-05-17T15:40:44.056Z,8.50
2018-05-17T15:43:18.368Z,10.70
2018-05-17T15:45:52.753Z,8.45
2018-05-17T15:48:26.379Z,11.77
2018-05-17T15:50:59.962Z,6.20
2018-05-17T15:53:33.601Z,8.85
2018-05-17T15:56:07.149Z,5.40
2018-05-17T15:58:40.697Z,8.45
2018-05-17T16:01:14.247Z,8.20
2018-05-17T16:03:47.850Z,3.85
2018-05-17T16:06:21.409Z,6.53
2018-05-17T16:08:54.956Z,7.35
2018-05-17T16:11:28.591Z,7.43
2018-05-17T16:14:02.164Z,6.47
2018-05-17T16:16:35.688Z,7.32
2018-05-17T16:19:09.278Z,8.10
2018-05-17T16:21:42.934Z,5.07
2018-05-17T16:24:16.445Z,4.93
2018-05-17T16:26:50.085Z,6.03
2018-05-17T16:29:23.841Z,9.32
2018-05-17T16:31:57.371Z,27.62
2018-05-17T16:34:30.979Z,51.03
2018-05-17T16:37:05.127Z,32.28
2018-05-17T16:39:40.430Z,11.73
2018-05-17T16:42:13.951Z,7.03
2018-05-17T16:44:47.512Z,5.85
2018-05-17T16:47:21.062Z,11.32
2018-05-17T16:49:54.609Z,7.05
2018-05-17T16:52:28.257Z,4.60
2018-05-17T16:55:01.836Z,5.20
2018-05-17T16:57:35.546Z,9.55
2018-05-17T17:00:09.115Z,5.32
2018-05-17T17:02:42.633Z,4.55
2018-05-17T17:05:16.254Z,3.62
2018-05-17T17:07:49.752Z,3.97
2018-05-17T17:10:23.294Z,6.47
2018-05-17T17:12:56.921Z,3.33
2018-05-17T17:15:30.534Z,4.87
2018-05-17T17:18:04.063Z,6.72
2018-05-17T17:20:37.634Z,4.05
2018-05-17T17:23:11.120Z,4.82
2018-05-17T17:25:44.716Z,5.80
2018-05-17T17:28:19.046Z,5.22
2018-05-17T17:30:52.892Z,12.07
2018-05-17T17:33:26.430Z,22.35
2018-05-17T17:35:59.949Z,59.22
2018-05-17T17:38:33.559Z,30.27
2018-05-17T17:41:07.279Z,26.10
2018-05-17T17:43:40.974Z,7.93
2018-05-17T17:46:14.534Z,8.35
2018-05-17T17:48:48.987Z,8.30
2018-05-17T17:51:22.516Z,7.72
2018-05-17T17:53:56.108Z,9.57
2018-05-17T17:56:29.781Z,20.23
2018-05-17T17:59:04.174Z,10.98
2018-05-17T18:01:38.640Z,7.78
2018-05-17T18:04:12.356Z,10.38
2018-05-17T18:06:46.022Z,12.45
2018-05-17T18:09:19.622Z,16.73
2018-05-17T18:11:54.089Z,8.80
2018-05-17T18:14:27.661Z,9.27
2018-05-17T18:17:02.087Z,7.40
2018-05-17T18:19:35.798Z,12.50
2018-05-17T18:22:09.375Z,12.43
2018-05-17T18:24:43.695Z,14.80
2018-05-17T18:27:18.012Z,10.73
2018-05-17T18:29:51.735Z,13.45
2018-05-17T18:32:25.238Z,11.30
2018-05-17T18:34:58.754Z,15.55
2018-05-17T18:37:32.425Z,29.48
2018-05-17T18:40:06.028Z,12.68
2018-05-17T18:42:39.661Z,15.70
2018-05-17T18:45:14.128Z,9.93
2018-05-17T18:47:47.741Z,10.55
2018-05-17T18:50:21.296Z,13.82
2018-05-17T18:52:54.971Z,9.73
2018-05-17T18:55:29.349Z,9.30
2018-05-17T18:58:02.946Z,9.93
2018-05-17T19:00:36.552Z,10.80
2018-05-17T19:03:10.075Z,13.65
2018-05-17T19:05:43.559Z,15.15
2018-05-17T19:08:17.143Z,11.98
2018-05-17T19:10:50.888Z,12.07
2018-05-17T19:13:25.182Z,14.45
2018-05-17T19:15:59.502Z,11.80
2018-05-17T19:18:33.218Z,10.80
2018-05-17T19:21:06.823Z,13.07
2018-05-17T19:23:40.402Z,15.25
2018-05-17T19:26:14.795Z,16.20
2018-05-17T19:28:49.329Z,20.12
2018-05-17T19:31:22.884Z,20.08
2018-05-17T19:33:56.471Z,32.55
2018-05-17T19:36:29.988Z,28.15
2018-05-17T19:39:04.346Z,28.65
2018-05-17T19:41:38.839Z,18.80
2018-05-17T19:44:12.526Z,20.98
2018-05-17T19:46:46.062Z,21.52
2018-05-17T19:49:19.719Z,15.32
2018-05-17T19:51:53.422Z,20.30
2018-05-17T19:54:26.979Z,16.20
2018-05-17T19:57:00.505Z,13.00
2018-05-17T19:59:34.870Z,16.85
2018-05-17T20:02:08.630Z,11.57
2018-05-17T20:04:42.242Z,13.23
2018-05-17T20:07:15.814Z,13.45
2018-05-17T20:09:49.418Z,14.05
2018-05-17T20:12:23.018Z,12.80
2018-05-17T20:14:56.702Z,14.57
2018-05-17T20:17:30.365Z,12.20
2018-05-17T20:20:04.035Z,21.00
2018-05-17T20:22:37.638Z,14.95
2018-05-17T20:25:11.217Z,14.85
2018-05-17T20:27:44.917Z,17.08
2018-05-17T20:30:18.527Z,18.15
2018-05-17T20:32:52.114Z,26.10
2018-05-17T20:35:26.547Z,34.83
2018-05-17T20:38:00.238Z,41.35
2018-05-17T20:40:33.899Z,21.35
2018-05-17T20:43:08.485Z,17.33
2018-05-17T20:45:42.153Z,19.80
2018-05-17T20:48:16.532Z,18.40
2018-05-17T20:50:50.930Z,17.75
2018-05-17T20:53:24.602Z,19.33
2018-05-17T20:55:58.350Z,21.23
2018-05-17T20:58:31.851Z,21.35
2018-05-17T21:01:06.156Z,23.30
2018-05-17T21:03:39.775Z,32.50
2018-05-17T21:06:13.338Z,23.77
2018-05-17T21:08:46.935Z,30.23
2018-05-17T21:11:21.458Z,28.20
2018-05-17T21:13:55.188Z,28.83
2018-05-17T21:16:28.742Z,30.10
2018-05-17T21:19:02.289Z,35.05
2018-05-17T21:21:35.884Z,34.85
2018-05-17T21:24:09.597Z,34.53
2018-05-17T21:26:43.168Z,35.78
2018-05-17T21:29:16.717Z,34.75
2018-05-17T21:31:50.293Z,34.70
2018-05-17T21:34:23.847Z,54.47
2018-05-17T21:36:57.454Z,72.47
2018-05-17T21:39:31.093Z,64.62
2018-05-17T21:42:04.809Z,88.35
2018-05-17T21:44:38.348Z,60.33
2018-05-17T21:47:11.995Z,71.22
2018-05-17T21:49:45.489Z,66.70
2018-05-17T21:52:19.069Z,77.28
2018-05-17T21:54:53.427Z,76.50
2018-05-17T21:57:27.109Z,82.68
2018-05-17T22:00:00.697Z,87.07
2018-05-17T22:02:34.216Z,80.30
2018-05-17T22:05:08.519Z,88.70
2018-05-17T22:07:42.269Z,82.50
2018-05-17T22:10:15.909Z,86.10
2018-05-17T22:12:49.433Z,85.28
2018-05-17T22:15:23.150Z,92.15
2018-05-17T22:17:56.871Z,90.45
2018-05-17T22:20:30.434Z,84.35
2018-05-17T22:23:04.042Z,99.82
2018-05-17T22:25:38.311Z,92.37
2018-05-17T22:28:11.994Z,101.28
2018-05-17T22:30:45.551Z,85.50
2018-05-17T22:33:19.878Z,89.13
2018-05-17T22:35:53.420Z,103.80
2018-05-17T22:38:26.990Z,131.60
2018-05-17T22:41:00.706Z,109.40
2018-05-17T22:43:34.244Z,88.43
2018-05-17T22:46:07.760Z,99.60
2018-05-17T22:48:41.358Z,97.25
2018-05-17T22:51:14.909Z,105.22
2018-05-17T22:53:48.459Z,110.57
2018-05-17T22:56:34.119Z,115.78
2018-05-17T22:59:07.700Z,112.22
2018-05-17T23:01:41.222Z,99.75
2018-05-17T23:04:14.857Z,117.47
2018-05-17T23:06:48.483Z,111.78
2018-05-17T23:09:22.026Z,103.25
2018-05-17T23:11:56.375Z,116.18
2018-05-17T23:14:30.679Z,99.25
2018-05-17T23:17:04.373Z,102.25
2018-05-17T23:19:37.919Z,103.00
2018-05-17T23:35:40.976Z,101.07
2018-05-17T23:38:15.494Z,112.97
2018-05-17T23:41:12.500Z,99.68
2018-05-17T23:43:46.055Z,93.45
2018-05-17T23:46:19.633Z,117.95
2018-05-17T23:48:53.954Z,109.47
2018-05-17T23:51:27.546Z,109.45
2018-05-17T23:54:01.253Z,112.80
2018-05-17T23:56:35.566Z,114.05
2018-05-17T23:59:09.325Z,113.20
